Pagina principale
METAR-TAF:

METAR-TAF

Aeroporti :

Victoria Falls, Zimbabwe

latitudine: 18-06S, longitudine: 025-51E, altezza: 1061 m

Osservazione

Il bollettino è stato emesso 11 ore e 3 minuti fa, alle 15:00 UTC
Vento 11 kt da est
Temperature 35°C
Umidità 9%
Pressione 1014 hPa
Visibilità: 8000 m

METAR: FVFA 181500Z 09011KT 8000 NSC 35/M02 Q1014 NOSIG

Ora: 04:03 (02:03 UTC)

Previsione

Il bollettino è stato emesso 10 ore e 3 minuti fa, alle 16:00 UTC
Previsione valida dal 18 alle 18 UTC al 19 alle 24 UTC
Vento 10 kt da est/nord-est
Visibilità: 8000 m

TAF: FVFA 181600Z 1818/1924 06010KT 8000 NSC

Osservazioni e previsioni meteorologiche di più di 4000 aeroporti (messaggi METAR e TAF).

Le stazioni disponibili sono rappresentate dai dischi gialli e rossi sulla carta.

Puntare il mouse per vedere il nome della stazione.

Clicca sopra per visualizzare le osservazioni e previsioni meteorologiche.

Per cambiare la mappa : fare clic sui pulsanti verdi con una croce nera per ingrandire, il pulsante verde con un trattino per diminuire, o sulla freccia verde per le mappe adiacenti.


METAR-TAF: